sensor_id;sensor_type;location;lat;lon;timestamp;P1;durP1;ratioP1;P2;durP2;ratioP2
21038;SDS011;10678;51.002;4.786;2023-05-07T00:01:56;14.88;;;6.57;;
21038;SDS011;10678;51.002;4.786;2023-05-07T00:04:22;14.38;;;5.70;;
21038;SDS011;10678;51.002;4.786;2023-05-07T00:06:47;8.20;;;5.22;;
21038;SDS011;10678;51.002;4.786;2023-05-07T00:09:13;13.48;;;5.70;;
21038;SDS011;10678;51.002;4.786;2023-05-07T00:11:39;11.15;;;6.10;;
21038;SDS011;10678;51.002;4.786;2023-05-07T00:14:05;10.52;;;5.80;;
21038;SDS011;10678;51.002;4.786;2023-05-07T00:16:31;11.60;;;6.18;;
21038;SDS011;10678;51.002;4.786;2023-05-07T00:18:56;11.75;;;5.38;;
21038;SDS011;10678;51.002;4.786;2023-05-07T00:21:22;14.85;;;6.22;;
21038;SDS011;10678;51.002;4.786;2023-05-07T00:23:48;11.60;;;5.53;;
21038;SDS011;10678;51.002;4.786;2023-05-07T00:26:13;10.15;;;5.55;;
21038;SDS011;10678;51.002;4.786;2023-05-07T00:28:39;14.70;;;5.50;;
21038;SDS011;10678;51.002;4.786;2023-05-07T00:31:05;11.27;;;5.75;;
21038;SDS011;10678;51.002;4.786;2023-05-07T00:33:30;8.15;;;5.57;;
21038;SDS011;10678;51.002;4.786;2023-05-07T00:35:56;11.98;;;5.82;;
21038;SDS011;10678;51.002;4.786;2023-05-07T00:38:21;12.13;;;5.78;;
21038;SDS011;10678;51.002;4.786;2023-05-07T00:40:47;12.40;;;6.15;;
21038;SDS011;10678;51.002;4.786;2023-05-07T00:43:13;13.05;;;5.93;;
21038;SDS011;10678;51.002;4.786;2023-05-07T00:45:38;10.73;;;5.88;;
21038;SDS011;10678;51.002;4.786;2023-05-07T00:48:04;12.75;;;5.47;;
21038;SDS011;10678;51.002;4.786;2023-05-07T00:50:30;10.43;;;5.55;;
21038;SDS011;10678;51.002;4.786;2023-05-07T00:52:56;9.52;;;5.72;;
21038;SDS011;10678;51.002;4.786;2023-05-07T00:55:23;9.40;;;5.40;;
21038;SDS011;10678;51.002;4.786;2023-05-07T00:57:49;9.68;;;5.68;;
21038;SDS011;10678;51.002;4.786;2023-05-07T01:00:16;9.45;;;5.80;;
21038;SDS011;10678;51.002;4.786;2023-05-07T01:02:43;14.80;;;5.85;;
21038;SDS011;10678;51.002;4.786;2023-05-07T01:05:09;11.45;;;6.50;;
21038;SDS011;10678;51.002;4.786;2023-05-07T01:07:38;13.48;;;5.38;;
21038;SDS011;10678;51.002;4.786;2023-05-07T01:10:06;10.50;;;5.55;;
21038;SDS011;10678;51.002;4.786;2023-05-07T01:12:32;8.55;;;5.65;;
21038;SDS011;10678;51.002;4.786;2023-05-07T01:14:59;12.38;;;6.30;;
21038;SDS011;10678;51.002;4.786;2023-05-07T01:17:25;9.73;;;5.50;;
21038;SDS011;10678;51.002;4.786;2023-05-07T01:19:51;11.15;;;6.18;;
21038;SDS011;10678;51.002;4.786;2023-05-07T01:22:25;11.95;;;6.32;;
21038;SDS011;10678;51.002;4.786;2023-05-07T01:24:56;11.63;;;5.45;;
21038;SDS011;10678;51.002;4.786;2023-05-07T01:27:24;13.35;;;5.95;;
21038;SDS011;10678;51.002;4.786;2023-05-07T01:29:50;10.30;;;5.88;;
21038;SDS011;10678;51.002;4.786;2023-05-07T01:32:16;12.73;;;6.53;;
21038;SDS011;10678;51.002;4.786;2023-05-07T01:34:46;11.73;;;6.60;;
21038;SDS011;10678;51.002;4.786;2023-05-07T01:37:15;11.45;;;6.43;;
21038;SDS011;10678;51.002;4.786;2023-05-07T01:39:41;10.95;;;6.22;;
21038;SDS011;10678;51.002;4.786;2023-05-07T01:42:07;9.48;;;5.82;;
21038;SDS011;10678;51.002;4.786;2023-05-07T01:44:33;9.52;;;6.05;;
21038;SDS011;10678;51.002;4.786;2023-05-07T01:46:59;14.90;;;6.13;;
21038;SDS011;10678;51.002;4.786;2023-05-07T01:49:27;9.90;;;6.63;;
21038;SDS011;10678;51.002;4.786;2023-05-07T01:51:53;13.27;;;7.25;;
21038;SDS011;10678;51.002;4.786;2023-05-07T01:54:19;10.75;;;5.88;;
21038;SDS011;10678;51.002;4.786;2023-05-07T01:56:45;10.75;;;6.53;;
21038;SDS011;10678;51.002;4.786;2023-05-07T01:59:13;11.80;;;6.53;;
21038;SDS011;10678;51.002;4.786;2023-05-07T02:01:38;11.77;;;6.72;;
21038;SDS011;10678;51.002;4.786;2023-05-07T02:04:04;11.77;;;5.88;;
21038;SDS011;10678;51.002;4.786;2023-05-07T02:06:29;11.07;;;6.80;;
21038;SDS011;10678;51.002;4.786;2023-05-07T02:08:56;14.95;;;6.93;;
21038;SDS011;10678;51.002;4.786;2023-05-07T02:11:21;14.95;;;6.78;;
21038;SDS011;10678;51.002;4.786;2023-05-07T02:13:47;13.63;;;6.90;;
21038;SDS011;10678;51.002;4.786;2023-05-07T02:16:13;10.73;;;6.38;;
21038;SDS011;10678;51.002;4.786;2023-05-07T02:18:39;11.90;;;6.60;;
21038;SDS011;10678;51.002;4.786;2023-05-07T02:21:05;8.73;;;6.00;;
21038;SDS011;10678;51.002;4.786;2023-05-07T02:23:30;10.85;;;6.60;;
21038;SDS011;10678;51.002;4.786;2023-05-07T02:25:56;12.32;;;6.43;;
21038;SDS011;10678;51.002;4.786;2023-05-07T02:28:21;10.15;;;6.45;;
21038;SDS011;10678;51.002;4.786;2023-05-07T02:30:47;11.48;;;6.45;;
21038;SDS011;10678;51.002;4.786;2023-05-07T02:33:13;11.48;;;6.20;;
21038;SDS011;10678;51.002;4.786;2023-05-07T02:35:39;10.18;;;6.45;;
21038;SDS011;10678;51.002;4.786;2023-05-07T02:38:05;10.80;;;5.78;;
21038;SDS011;10678;51.002;4.786;2023-05-07T02:40:30;14.32;;;7.43;;
21038;SDS011;10678;51.002;4.786;2023-05-07T02:42:58;11.95;;;7.32;;
21038;SDS011;10678;51.002;4.786;2023-05-07T02:45:24;12.48;;;7.22;;
21038;SDS011;10678;51.002;4.786;2023-05-07T02:47:50;11.23;;;7.03;;
21038;SDS011;10678;51.002;4.786;2023-05-07T02:50:16;13.68;;;7.05;;
21038;SDS011;10678;51.002;4.786;2023-05-07T02:52:41;11.10;;;6.68;;
21038;SDS011;10678;51.002;4.786;2023-05-07T02:55:07;10.98;;;6.72;;
21038;SDS011;10678;51.002;4.786;2023-05-07T02:57:33;10.85;;;6.55;;
21038;SDS011;10678;51.002;4.786;2023-05-07T02:59:59;10.25;;;7.00;;
21038;SDS011;10678;51.002;4.786;2023-05-07T03:02:34;11.38;;;6.95;;
21038;SDS011;10678;51.002;4.786;2023-05-07T03:05:00;9.43;;;6.10;;
21038;SDS011;10678;51.002;4.786;2023-05-07T03:07:26;10.75;;;6.68;;
21038;SDS011;10678;51.002;4.786;2023-05-07T03:09:52;13.18;;;7.40;;
21038;SDS011;10678;51.002;4.786;2023-05-07T03:12:18;11.43;;;6.93;;
21038;SDS011;10678;51.002;4.786;2023-05-07T03:14:44;12.25;;;7.28;;
21038;SDS011;10678;51.002;4.786;2023-05-07T03:17:09;13.75;;;7.28;;
21038;SDS011;10678;51.002;4.786;2023-05-07T03:19:35;10.93;;;6.45;;
21038;SDS011;10678;51.002;4.786;2023-05-07T03:22:01;12.55;;;7.03;;
21038;SDS011;10678;51.002;4.786;2023-05-07T03:24:26;9.80;;;7.00;;
21038;SDS011;10678;51.002;4.786;2023-05-07T03:26:52;11.00;;;7.55;;
21038;SDS011;10678;51.002;4.786;2023-05-07T03:29:18;13.77;;;8.20;;
21038;SDS011;10678;51.002;4.786;2023-05-07T03:31:43;12.88;;;6.90;;
21038;SDS011;10678;51.002;4.786;2023-05-07T03:34:10;12.00;;;6.82;;
21038;SDS011;10678;51.002;4.786;2023-05-07T03:36:35;11.13;;;6.85;;
21038;SDS011;10678;51.002;4.786;2023-05-07T03:39:01;13.75;;;7.15;;
21038;SDS011;10678;51.002;4.786;2023-05-07T03:41:26;12.45;;;7.57;;
21038;SDS011;10678;51.002;4.786;2023-05-07T03:43:52;9.98;;;7.25;;
21038;SDS011;10678;51.002;4.786;2023-05-07T03:46:18;11.55;;;6.82;;
21038;SDS011;10678;51.002;4.786;2023-05-07T03:48:43;12.77;;;7.07;;
21038;SDS011;10678;51.002;4.786;2023-05-07T03:51:09;11.23;;;6.88;;
21038;SDS011;10678;51.002;4.786;2023-05-07T03:53:35;13.70;;;7.25;;
21038;SDS011;10678;51.002;4.786;2023-05-07T03:56:00;10.80;;;6.68;;
21038;SDS011;10678;51.002;4.786;2023-05-07T03:58:26;13.60;;;7.32;;
21038;SDS011;10678;51.002;4.786;2023-05-07T04:00:52;12.48;;;7.00;;
21038;SDS011;10678;51.002;4.786;2023-05-07T04:03:17;11.38;;;6.50;;
21038;SDS011;10678;51.002;4.786;2023-05-07T04:05:43;12.85;;;7.45;;
21038;SDS011;10678;51.002;4.786;2023-05-07T04:08:08;12.43;;;6.60;;
21038;SDS011;10678;51.002;4.786;2023-05-07T04:10:34;10.23;;;7.15;;
21038;SDS011;10678;51.002;4.786;2023-05-07T04:13:00;12.15;;;7.55;;
21038;SDS011;10678;51.002;4.786;2023-05-07T04:15:25;13.63;;;7.53;;
21038;SDS011;10678;51.002;4.786;2023-05-07T04:17:51;14.40;;;8.18;;
21038;SDS011;10678;51.002;4.786;2023-05-07T04:20:17;11.20;;;7.90;;
21038;SDS011;10678;51.002;4.786;2023-05-07T04:22:42;9.20;;;7.30;;
21038;SDS011;10678;51.002;4.786;2023-05-07T04:25:08;11.98;;;6.85;;
21038;SDS011;10678;51.002;4.786;2023-05-07T04:27:35;11.68;;;7.82;;
21038;SDS011;10678;51.002;4.786;2023-05-07T04:30:01;14.18;;;7.88;;
21038;SDS011;10678;51.002;4.786;2023-05-07T04:32:27;10.68;;;7.70;;
21038;SDS011;10678;51.002;4.786;2023-05-07T04:34:54;13.65;;;7.43;;
21038;SDS011;10678;51.002;4.786;2023-05-07T04:37:20;13.80;;;7.65;;
21038;SDS011;10678;51.002;4.786;2023-05-07T04:39:46;15.35;;;7.68;;
21038;SDS011;10678;51.002;4.786;2023-05-07T04:42:15;15.40;;;8.10;;
21038;SDS011;10678;51.002;4.786;2023-05-07T04:44:43;12.20;;;8.07;;
21038;SDS011;10678;51.002;4.786;2023-05-07T04:47:10;16.48;;;8.07;;
21038;SDS011;10678;51.002;4.786;2023-05-07T04:49:36;10.68;;;7.30;;
21038;SDS011;10678;51.002;4.786;2023-05-07T04:52:02;12.60;;;7.85;;
21038;SDS011;10678;51.002;4.786;2023-05-07T04:54:29;11.82;;;7.35;;
21038;SDS011;10678;51.002;4.786;2023-05-07T04:56:54;10.98;;;7.90;;
21038;SDS011;10678;51.002;4.786;2023-05-07T04:59:20;13.82;;;8.02;;
21038;SDS011;10678;51.002;4.786;2023-05-07T05:01:46;12.88;;;7.57;;
21038;SDS011;10678;51.002;4.786;2023-05-07T05:04:11;11.60;;;7.72;;
21038;SDS011;10678;51.002;4.786;2023-05-07T05:06:38;13.35;;;7.07;;
21038;SDS011;10678;51.002;4.786;2023-05-07T05:09:03;13.73;;;7.78;;
21038;SDS011;10678;51.002;4.786;2023-05-07T05:11:30;13.20;;;8.40;;
21038;SDS011;10678;51.002;4.786;2023-05-07T05:13:55;11.15;;;7.82;;
21038;SDS011;10678;51.002;4.786;2023-05-07T05:16:21;15.32;;;7.65;;
21038;SDS011;10678;51.002;4.786;2023-05-07T05:18:47;12.48;;;8.05;;
21038;SDS011;10678;51.002;4.786;2023-05-07T05:21:12;13.02;;;8.25;;
21038;SDS011;10678;51.002;4.786;2023-05-07T05:23:38;13.13;;;7.30;;
21038;SDS011;10678;51.002;4.786;2023-05-07T05:26:04;11.20;;;7.03;;
21038;SDS011;10678;51.002;4.786;2023-05-07T05:28:29;12.32;;;7.80;;
21038;SDS011;10678;51.002;4.786;2023-05-07T05:30:55;12.20;;;7.68;;
21038;SDS011;10678;51.002;4.786;2023-05-07T05:33:21;14.60;;;7.85;;
21038;SDS011;10678;51.002;4.786;2023-05-07T05:35:46;12.73;;;7.32;;
21038;SDS011;10678;51.002;4.786;2023-05-07T05:38:12;12.50;;;7.07;;
21038;SDS011;10678;51.002;4.786;2023-05-07T05:40:38;14.70;;;8.20;;
21038;SDS011;10678;51.002;4.786;2023-05-07T05:43:04;13.35;;;7.68;;
21038;SDS011;10678;51.002;4.786;2023-05-07T05:45:30;10.00;;;7.63;;
21038;SDS011;10678;51.002;4.786;2023-05-07T05:47:56;10.98;;;6.85;;
21038;SDS011;10678;51.002;4.786;2023-05-07T05:50:22;12.07;;;7.82;;
21038;SDS011;10678;51.002;4.786;2023-05-07T05:52:48;13.43;;;8.55;;
21038;SDS011;10678;51.002;4.786;2023-05-07T05:55:13;12.88;;;8.38;;
21038;SDS011;10678;51.002;4.786;2023-05-07T05:57:39;10.77;;;8.43;;
21038;SDS011;10678;51.002;4.786;2023-05-07T06:00:05;13.18;;;7.40;;
21038;SDS011;10678;51.002;4.786;2023-05-07T06:02:32;10.52;;;7.47;;
21038;SDS011;10678;51.002;4.786;2023-05-07T06:04:58;13.43;;;8.65;;
21038;SDS011;10678;51.002;4.786;2023-05-07T06:07:24;14.93;;;7.55;;
21038;SDS011;10678;51.002;4.786;2023-05-07T06:09:49;11.85;;;7.28;;
21038;SDS011;10678;51.002;4.786;2023-05-07T06:12:15;10.80;;;7.35;;
21038;SDS011;10678;51.002;4.786;2023-05-07T06:14:42;9.85;;;7.35;;
21038;SDS011;10678;51.002;4.786;2023-05-07T06:17:08;12.13;;;8.05;;
21038;SDS011;10678;51.002;4.786;2023-05-07T06:19:34;13.43;;;7.47;;
21038;SDS011;10678;51.002;4.786;2023-05-07T06:21:59;14.35;;;8.05;;
21038;SDS011;10678;51.002;4.786;2023-05-07T06:24:26;10.80;;;8.00;;
21038;SDS011;10678;51.002;4.786;2023-05-07T06:26:52;16.38;;;8.90;;
21038;SDS011;10678;51.002;4.786;2023-05-07T06:29:18;14.02;;;8.77;;
21038;SDS011;10678;51.002;4.786;2023-05-07T06:31:43;14.43;;;8.98;;
21038;SDS011;10678;51.002;4.786;2023-05-07T06:34:09;13.20;;;9.38;;
21038;SDS011;10678;51.002;4.786;2023-05-07T06:36:35;11.00;;;8.70;;
21038;SDS011;10678;51.002;4.786;2023-05-07T06:39:01;12.32;;;8.43;;
21038;SDS011;10678;51.002;4.786;2023-05-07T06:41:26;14.50;;;8.43;;
21038;SDS011;10678;51.002;4.786;2023-05-07T06:43:52;13.25;;;8.43;;
21038;SDS011;10678;51.002;4.786;2023-05-07T06:46:18;10.77;;;8.07;;
21038;SDS011;10678;51.002;4.786;2023-05-07T06:48:43;12.15;;;8.13;;
21038;SDS011;10678;51.002;4.786;2023-05-07T06:51:09;12.05;;;8.25;;
21038;SDS011;10678;51.002;4.786;2023-05-07T06:53:35;11.52;;;7.45;;
21038;SDS011;10678;51.002;4.786;2023-05-07T06:56:00;16.48;;;8.07;;
21038;SDS011;10678;51.002;4.786;2023-05-07T06:58:26;10.60;;;7.40;;
21038;SDS011;10678;51.002;4.786;2023-05-07T07:00:51;10.70;;;6.95;;
21038;SDS011;10678;51.002;4.786;2023-05-07T07:03:17;11.18;;;7.15;;
21038;SDS011;10678;51.002;4.786;2023-05-07T07:05:43;11.63;;;7.40;;
21038;SDS011;10678;51.002;4.786;2023-05-07T07:08:09;12.95;;;7.85;;
21038;SDS011;10678;51.002;4.786;2023-05-07T07:10:35;10.63;;;6.75;;
21038;SDS011;10678;51.002;4.786;2023-05-07T07:13:01;10.75;;;6.70;;
21038;SDS011;10678;51.002;4.786;2023-05-07T07:15:26;11.23;;;7.30;;
21038;SDS011;10678;51.002;4.786;2023-05-07T07:17:52;12.20;;;7.13;;
21038;SDS011;10678;51.002;4.786;2023-05-07T07:20:18;14.63;;;7.97;;
21038;SDS011;10678;51.002;4.786;2023-05-07T07:22:43;16.00;;;7.60;;
21038;SDS011;10678;51.002;4.786;2023-05-07T07:25:09;15.30;;;7.70;;
21038;SDS011;10678;51.002;4.786;2023-05-07T07:27:36;10.73;;;7.30;;
21038;SDS011;10678;51.002;4.786;2023-05-07T07:30:02;13.63;;;8.18;;
21038;SDS011;10678;51.002;4.786;2023-05-07T07:32:28;12.27;;;7.95;;
21038;SDS011;10678;51.002;4.786;2023-05-07T07:34:54;17.65;;;7.15;;
21038;SDS011;10678;51.002;4.786;2023-05-07T07:37:19;14.15;;;7.65;;
21038;SDS011;10678;51.002;4.786;2023-05-07T07:39:45;11.43;;;7.30;;
21038;SDS011;10678;51.002;4.786;2023-05-07T07:42:11;13.20;;;7.93;;
21038;SDS011;10678;51.002;4.786;2023-05-07T07:44:36;15.75;;;8.25;;
21038;SDS011;10678;51.002;4.786;2023-05-07T07:47:04;14.80;;;7.90;;
21038;SDS011;10678;51.002;4.786;2023-05-07T07:49:30;14.45;;;7.30;;
21038;SDS011;10678;51.002;4.786;2023-05-07T07:51:55;13.38;;;7.78;;
21038;SDS011;10678;51.002;4.786;2023-05-07T07:54:24;11.57;;;6.60;;
21038;SDS011;10678;51.002;4.786;2023-05-07T07:56:50;13.27;;;7.13;;
21038;SDS011;10678;51.002;4.786;2023-05-07T07:59:17;19.40;;;8.15;;
21038;SDS011;10678;51.002;4.786;2023-05-07T08:01:44;12.27;;;6.97;;
21038;SDS011;10678;51.002;4.786;2023-05-07T08:04:11;17.75;;;7.07;;
21038;SDS011;10678;51.002;4.786;2023-05-07T08:06:36;13.65;;;7.60;;
21038;SDS011;10678;51.002;4.786;2023-05-07T08:09:02;13.85;;;6.93;;
21038;SDS011;10678;51.002;4.786;2023-05-07T08:11:28;13.73;;;7.15;;
21038;SDS011;10678;51.002;4.786;2023-05-07T08:13:54;15.38;;;6.88;;
21038;SDS011;10678;51.002;4.786;2023-05-07T08:16:20;11.95;;;6.78;;
21038;SDS011;10678;51.002;4.786;2023-05-07T08:18:46;14.98;;;6.03;;
21038;SDS011;10678;51.002;4.786;2023-05-07T08:21:12;12.25;;;6.63;;
21038;SDS011;10678;51.002;4.786;2023-05-07T08:23:37;12.77;;;5.82;;
21038;SDS011;10678;51.002;4.786;2023-05-07T08:26:03;11.27;;;5.22;;
21038;SDS011;10678;51.002;4.786;2023-05-07T08:28:29;11.88;;;5.38;;
21038;SDS011;10678;51.002;4.786;2023-05-07T08:30:54;11.15;;;5.00;;
21038;SDS011;10678;51.002;4.786;2023-05-07T08:33:21;12.10;;;5.20;;
21038;SDS011;10678;51.002;4.786;2023-05-07T08:35:47;14.52;;;5.18;;
21038;SDS011;10678;51.002;4.786;2023-05-07T08:38:13;10.60;;;4.60;;
21038;SDS011;10678;51.002;4.786;2023-05-07T08:40:39;12.60;;;4.88;;
21038;SDS011;10678;51.002;4.786;2023-05-07T08:43:06;13.48;;;4.95;;
21038;SDS011;10678;51.002;4.786;2023-05-07T08:45:35;12.15;;;4.53;;
21038;SDS011;10678;51.002;4.786;2023-05-07T08:48:03;15.77;;;5.15;;
21038;SDS011;10678;51.002;4.786;2023-05-07T08:50:35;11.57;;;4.50;;
21038;SDS011;10678;51.002;4.786;2023-05-07T08:53:02;10.52;;;4.25;;
21038;SDS011;10678;51.002;4.786;2023-05-07T08:55:29;10.82;;;4.47;;
21038;SDS011;10678;51.002;4.786;2023-05-07T08:57:55;13.82;;;4.50;;
21038;SDS011;10678;51.002;4.786;2023-05-07T09:00:21;10.82;;;4.15;;
21038;SDS011;10678;51.002;4.786;2023-05-07T09:02:47;10.73;;;4.35;;
21038;SDS011;10678;51.002;4.786;2023-05-07T09:05:13;9.98;;;4.10;;
21038;SDS011;10678;51.002;4.786;2023-05-07T09:07:39;15.70;;;4.75;;
21038;SDS011;10678;51.002;4.786;2023-05-07T09:10:04;10.35;;;4.30;;
21038;SDS011;10678;51.002;4.786;2023-05-07T09:12:31;10.85;;;4.10;;
21038;SDS011;10678;51.002;4.786;2023-05-07T09:14:58;9.75;;;4.05;;
21038;SDS011;10678;51.002;4.786;2023-05-07T09:17:24;9.02;;;3.95;;
21038;SDS011;10678;51.002;4.786;2023-05-07T09:19:50;7.75;;;3.90;;
21038;SDS011;10678;51.002;4.786;2023-05-07T09:22:18;10.07;;;3.83;;
21038;SDS011;10678;51.002;4.786;2023-05-07T09:24:48;11.85;;;4.00;;
21038;SDS011;10678;51.002;4.786;2023-05-07T09:27:17;11.55;;;3.60;;
21038;SDS011;10678;51.002;4.786;2023-05-07T09:29:44;10.20;;;4.05;;
21038;SDS011;10678;51.002;4.786;2023-05-07T09:32:09;11.02;;;3.88;;
21038;SDS011;10678;51.002;4.786;2023-05-07T09:34:35;9.15;;;3.33;;
21038;SDS011;10678;51.002;4.786;2023-05-07T09:37:04;8.95;;;3.38;;
21038;SDS011;10678;51.002;4.786;2023-05-07T09:39:43;13.18;;;3.40;;
21038;SDS011;10678;51.002;4.786;2023-05-07T09:42:10;8.52;;;3.10;;
21038;SDS011;10678;51.002;4.786;2023-05-07T09:44:36;9.38;;;3.17;;
21038;SDS011;10678;51.002;4.786;2023-05-07T09:47:04;9.50;;;2.90;;
21038;SDS011;10678;51.002;4.786;2023-05-07T09:49:33;11.52;;;3.17;;
21038;SDS011;10678;51.002;4.786;2023-05-07T09:52:01;8.25;;;2.90;;
21038;SDS011;10678;51.002;4.786;2023-05-07T09:54:28;8.15;;;3.00;;
21038;SDS011;10678;51.002;4.786;2023-05-07T09:56:54;10.82;;;3.38;;
21038;SDS011;10678;51.002;4.786;2023-05-07T09:59:21;10.10;;;3.38;;
21038;SDS011;10678;51.002;4.786;2023-05-07T10:01:48;12.30;;;3.42;;
21038;SDS011;10678;51.002;4.786;2023-05-07T10:04:15;11.07;;;3.10;;
21038;SDS011;10678;51.002;4.786;2023-05-07T10:06:42;11.18;;;3.13;;
21038;SDS011;10678;51.002;4.786;2023-05-07T10:09:09;8.52;;;2.88;;
21038;SDS011;10678;51.002;4.786;2023-05-07T10:11:36;9.30;;;3.22;;
21038;SDS011;10678;51.002;4.786;2023-05-07T10:14:04;9.82;;;3.10;;
21038;SDS011;10678;51.002;4.786;2023-05-07T10:16:34;9.32;;;3.10;;
21038;SDS011;10678;51.002;4.786;2023-05-07T10:19:04;10.27;;;2.78;;
21038;SDS011;10678;51.002;4.786;2023-05-07T10:21:31;13.73;;;3.08;;
21038;SDS011;10678;51.002;4.786;2023-05-07T10:24:05;7.25;;;2.90;;
21038;SDS011;10678;51.002;4.786;2023-05-07T10:26:39;10.25;;;2.78;;
21038;SDS011;10678;51.002;4.786;2023-05-07T10:32:08;10.40;;;3.05;;
21038;SDS011;10678;51.002;4.786;2023-05-07T10:34:53;11.00;;;3.70;;
21038;SDS011;10678;51.002;4.786;2023-05-07T10:37:29;9.52;;;3.33;;
21038;SDS011;10678;51.002;4.786;2023-05-07T10:39:55;9.43;;;3.03;;
21038;SDS011;10678;51.002;4.786;2023-05-07T10:42:22;8.63;;;3.10;;
21038;SDS011;10678;51.002;4.786;2023-05-07T10:44:47;10.98;;;3.38;;
21038;SDS011;10678;51.002;4.786;2023-05-07T10:47:15;13.23;;;3.70;;
21038;SDS011;10678;51.002;4.786;2023-05-07T10:54:41;10.18;;;2.67;;
21038;SDS011;10678;51.002;4.786;2023-05-07T10:59:59;9.20;;;2.20;;
21038;SDS011;10678;51.002;4.786;2023-05-07T11:03:04;11.88;;;2.58;;
21038;SDS011;10678;51.002;4.786;2023-05-07T11:05:40;4.95;;;2.15;;
21038;SDS011;10678;51.002;4.786;2023-05-07T11:08:06;10.50;;;2.22;;
21038;SDS011;10678;51.002;4.786;2023-05-07T11:13:14;8.02;;;2.28;;
21038;SDS011;10678;51.002;4.786;2023-05-07T11:15:42;8.00;;;2.70;;
21038;SDS011;10678;51.002;4.786;2023-05-07T11:18:13;9.20;;;2.90;;
21038;SDS011;10678;51.002;4.786;2023-05-07T11:25:59;10.15;;;2.67;;
21038;SDS011;10678;51.002;4.786;2023-05-07T11:28:39;8.85;;;2.55;;
21038;SDS011;10678;51.002;4.786;2023-05-07T11:31:06;10.00;;;3.42;;
21038;SDS011;10678;51.002;4.786;2023-05-07T11:33:32;7.40;;;2.55;;
21038;SDS011;10678;51.002;4.786;2023-05-07T11:35:59;11.55;;;3.20;;
21038;SDS011;10678;51.002;4.786;2023-05-07T11:38:25;10.88;;;2.60;;
21038;SDS011;10678;51.002;4.786;2023-05-07T11:40:55;11.73;;;2.95;;
21038;SDS011;10678;51.002;4.786;2023-05-07T11:43:22;8.80;;;3.03;;
21038;SDS011;10678;51.002;4.786;2023-05-07T11:45:48;8.35;;;2.65;;
21038;SDS011;10678;51.002;4.786;2023-05-07T11:48:14;7.50;;;2.80;;
21038;SDS011;10678;51.002;4.786;2023-05-07T11:50:53;9.65;;;3.20;;
21038;SDS011;10678;51.002;4.786;2023-05-07T11:53:24;7.07;;;2.75;;
21038;SDS011;10678;51.002;4.786;2023-05-07T11:55:56;8.88;;;3.13;;
21038;SDS011;10678;51.002;4.786;2023-05-07T11:58:23;8.18;;;2.80;;
21038;SDS011;10678;51.002;4.786;2023-05-07T12:00:50;6.22;;;2.90;;
21038;SDS011;10678;51.002;4.786;2023-05-07T12:03:19;20.25;;;8.55;;
21038;SDS011;10678;51.002;4.786;2023-05-07T12:05:45;13.35;;;4.43;;
21038;SDS011;10678;51.002;4.786;2023-05-07T12:08:14;8.43;;;2.70;;
21038;SDS011;10678;51.002;4.786;2023-05-07T12:10:44;8.23;;;2.80;;
21038;SDS011;10678;51.002;4.786;2023-05-07T12:13:16;8.77;;;2.67;;
21038;SDS011;10678;51.002;4.786;2023-05-07T12:15:43;7.78;;;2.50;;
21038;SDS011;10678;51.002;4.786;2023-05-07T12:18:09;7.63;;;2.55;;
21038;SDS011;10678;51.002;4.786;2023-05-07T12:20:36;9.35;;;2.53;;
21038;SDS011;10678;51.002;4.786;2023-05-07T12:23:02;8.80;;;2.55;;
21038;SDS011;10678;51.002;4.786;2023-05-07T12:25:31;8.18;;;2.35;;
21038;SDS011;10678;51.002;4.786;2023-05-07T12:28:01;11.43;;;2.85;;
21038;SDS011;10678;51.002;4.786;2023-05-07T12:30:29;11.82;;;2.40;;
21038;SDS011;10678;51.002;4.786;2023-05-07T12:33:05;6.35;;;2.05;;
21038;SDS011;10678;51.002;4.786;2023-05-07T12:35:31;7.70;;;2.33;;
21038;SDS011;10678;51.002;4.786;2023-05-07T12:38:01;10.57;;;2.30;;
21038;SDS011;10678;51.002;4.786;2023-05-07T12:40:36;8.35;;;2.55;;
21038;SDS011;10678;51.002;4.786;2023-05-07T12:43:04;8.85;;;2.55;;
21038;SDS011;10678;51.002;4.786;2023-05-07T12:45:30;9.98;;;2.30;;
21038;SDS011;10678;51.002;4.786;2023-05-07T12:47:56;8.20;;;2.20;;
21038;SDS011;10678;51.002;4.786;2023-05-07T12:50:26;6.10;;;2.20;;
21038;SDS011;10678;51.002;4.786;2023-05-07T12:52:55;7.18;;;2.22;;
21038;SDS011;10678;51.002;4.786;2023-05-07T12:55:21;8.95;;;2.30;;
21038;SDS011;10678;51.002;4.786;2023-05-07T12:57:50;6.63;;;2.28;;
21038;SDS011;10678;51.002;4.786;2023-05-07T13:00:18;11.02;;;2.75;;
21038;SDS011;10678;51.002;4.786;2023-05-07T13:02:58;9.15;;;2.65;;
21038;SDS011;10678;51.002;4.786;2023-05-07T13:05:23;5.68;;;1.95;;
21038;SDS011;10678;51.002;4.786;2023-05-07T13:07:55;6.82;;;2.13;;
21038;SDS011;10678;51.002;4.786;2023-05-07T13:10:22;4.13;;;1.67;;
21038;SDS011;10678;51.002;4.786;2023-05-07T13:12:48;7.88;;;1.80;;
21038;SDS011;10678;51.002;4.786;2023-05-07T13:15:14;9.70;;;2.03;;
21038;SDS011;10678;51.002;4.786;2023-05-07T13:17:40;8.55;;;2.67;;
21038;SDS011;10678;51.002;4.786;2023-05-07T13:20:05;8.30;;;2.25;;
21038;SDS011;10678;51.002;4.786;2023-05-07T13:22:33;5.15;;;1.85;;
21038;SDS011;10678;51.002;4.786;2023-05-07T13:24:58;8.57;;;2.10;;
21038;SDS011;10678;51.002;4.786;2023-05-07T13:27:24;8.00;;;1.90;;
21038;SDS011;10678;51.002;4.786;2023-05-07T13:29:51;6.53;;;1.85;;
21038;SDS011;10678;51.002;4.786;2023-05-07T13:32:16;8.45;;;2.10;;
21038;SDS011;10678;51.002;4.786;2023-05-07T13:34:42;5.05;;;1.50;;
21038;SDS011;10678;51.002;4.786;2023-05-07T13:37:08;6.50;;;1.70;;
21038;SDS011;10678;51.002;4.786;2023-05-07T13:39:33;5.28;;;1.55;;
21038;SDS011;10678;51.002;4.786;2023-05-07T13:41:59;6.43;;;1.80;;
21038;SDS011;10678;51.002;4.786;2023-05-07T13:44:25;5.57;;;1.80;;
21038;SDS011;10678;51.002;4.786;2023-05-07T13:46:51;6.10;;;1.92;;
21038;SDS011;10678;51.002;4.786;2023-05-07T13:49:17;7.53;;;2.05;;
21038;SDS011;10678;51.002;4.786;2023-05-07T13:51:43;6.93;;;2.45;;
21038;SDS011;10678;51.002;4.786;2023-05-07T13:54:08;6.22;;;2.03;;
21038;SDS011;10678;51.002;4.786;2023-05-07T13:56:34;7.50;;;2.05;;
21038;SDS011;10678;51.002;4.786;2023-05-07T13:59:00;7.72;;;2.00;;
21038;SDS011;10678;51.002;4.786;2023-05-07T14:01:26;5.65;;;1.90;;
21038;SDS011;10678;51.002;4.786;2023-05-07T14:03:52;8.25;;;2.15;;
21038;SDS011;10678;51.002;4.786;2023-05-07T14:06:17;6.53;;;2.30;;
21038;SDS011;10678;51.002;4.786;2023-05-07T14:08:43;6.63;;;1.73;;
21038;SDS011;10678;51.002;4.786;2023-05-07T14:11:08;6.10;;;1.95;;
21038;SDS011;10678;51.002;4.786;2023-05-07T14:13:34;7.15;;;1.80;;
21038;SDS011;10678;51.002;4.786;2023-05-07T14:16:00;7.30;;;2.00;;
21038;SDS011;10678;51.002;4.786;2023-05-07T14:18:26;5.32;;;1.67;;
21038;SDS011;10678;51.002;4.786;2023-05-07T14:20:53;8.35;;;1.75;;
21038;SDS011;10678;51.002;4.786;2023-05-07T14:23:19;8.43;;;2.15;;
21038;SDS011;10678;51.002;4.786;2023-05-07T14:25:47;7.28;;;2.03;;
21038;SDS011;10678;51.002;4.786;2023-05-07T14:28:12;5.63;;;2.33;;
21038;SDS011;10678;51.002;4.786;2023-05-07T14:30:38;8.93;;;2.22;;
21038;SDS011;10678;51.002;4.786;2023-05-07T14:33:04;8.38;;;2.58;;
21038;SDS011;10678;51.002;4.786;2023-05-07T14:35:29;5.03;;;2.15;;
21038;SDS011;10678;51.002;4.786;2023-05-07T14:37:55;8.00;;;2.58;;
21038;SDS011;10678;51.002;4.786;2023-05-07T14:40:21;6.28;;;2.17;;
21038;SDS011;10678;51.002;4.786;2023-05-07T14:42:46;7.68;;;2.10;;
21038;SDS011;10678;51.002;4.786;2023-05-07T14:45:12;5.95;;;2.25;;
21038;SDS011;10678;51.002;4.786;2023-05-07T14:47:38;8.55;;;2.45;;
21038;SDS011;10678;51.002;4.786;2023-05-07T14:50:03;7.45;;;2.90;;
21038;SDS011;10678;51.002;4.786;2023-05-07T14:52:29;9.50;;;2.40;;
21038;SDS011;10678;51.002;4.786;2023-05-07T14:54:55;7.90;;;2.47;;